Time;durP1;ratioP1;P1;durP2;ratioP2;P2;SDS_P1;SDS_P2;PMS_P1;PMS_P2;Temp;Humidity;BMP_temperature;BMP_pressure;BME280_temperature;BME280_humidity;BME280_pressure;Samples;Min_cycle;Max_cycle;Signal;HPM_P1;HPM_P2
2022/12/11 00:02:18;;;;;;;36.90;14.43;;;-0.70;99.90;;;;;;5073371;28;20124;-78
2022/12/11 00:04:44;;;;;;;35.35;13.13;;;-0.70;99.90;;;;;;5073848;28;20120;-77
2022/12/11 00:07:10;;;;;;;29.88;13.75;;;-0.70;99.90;;;;;;5073525;28;20048;-76
2022/12/11 00:09:35;;;;;;;31.50;12.55;;;-0.70;99.90;;;;;;5073620;28;20048;-78
2022/12/11 00:12:01;;;;;;;30.90;13.60;;;-0.70;99.90;;;;;;5073380;28;20079;-77
2022/12/11 00:14:28;;;;;;;27.48;12.50;;;-0.70;99.90;;;;;;5073165;28;20369;-77
2022/12/11 00:16:54;;;;;;;28.80;13.48;;;-0.70;99.90;;;;;;5073166;28;20123;-77
2022/12/11 00:19:20;;;;;;;38.15;16.08;;;-0.60;99.90;;;;;;5072881;28;20147;-79
2022/12/11 00:21:45;;;;;;;34.47;15.10;;;-0.60;99.90;;;;;;5073133;28;20056;-76
2022/12/11 00:24:11;;;;;;;28.60;14.25;;;-0.60;99.90;;;;;;5071941;28;20051;-78
2022/12/11 00:26:37;;;;;;;32.00;14.10;;;-0.60;99.90;;;;;;5072638;28;20136;-76
2022/12/11 00:29:03;;;;;;;44.28;15.05;;;-0.60;99.90;;;;;;5076287;28;20044;-78
2022/12/11 00:31:29;;;;;;;33.63;13.70;;;-0.50;99.90;;;;;;5076679;28;20094;-75
2022/12/11 00:33:54;;;;;;;38.72;12.77;;;0.70;99.90;;;;;;5076468;28;20393;-76
2022/12/11 00:36:23;;;;;;;27.63;12.57;;;-0.50;99.90;;;;;;5076328;28;20037;-77
2022/12/11 00:38:49;;;;;;;36.88;14.10;;;-0.50;99.90;;;;;;5076637;28;20400;-76
2022/12/11 00:41:16;;;;;;;38.25;13.93;;;-0.50;99.90;;;;;;5076571;28;20084;-75
2022/12/11 00:43:41;;;;;;;38.38;14.57;;;-0.50;99.90;;;;;;5076531;28;20045;-76
2022/12/11 00:46:07;;;;;;;33.38;12.95;;;-0.60;99.90;;;;;;5076363;28;20389;-74
2022/12/11 00:48:33;;;;;;;34.63;13.30;;;-0.50;99.90;;;;;;5076354;28;20087;-77
2022/12/11 00:50:58;;;;;;;33.38;14.07;;;-0.60;99.90;;;;;;5076762;28;20480;-75
2022/12/11 00:53:24;;;;;;;33.20;13.75;;;-0.60;99.90;;;;;;5076419;28;20488;-75
2022/12/11 00:55:50;;;;;;;36.65;14.10;;;-0.50;99.90;;;;;;5076239;28;20480;-78
2022/12/11 00:58:15;;;;;;;33.05;13.25;;;-0.50;99.90;;;;;;5076307;28;20044;-77
2022/12/11 01:00:42;;;;;;;36.85;13.80;;;-0.50;99.90;;;;;;5076025;28;20091;-76
2022/12/11 01:03:08;;;;;;;29.15;14.15;;;-0.50;99.90;;;;;;5076189;28;20495;-75
2022/12/11 01:05:34;;;;;;;32.53;13.80;;;-0.50;99.90;;;;;;5076536;28;20040;-78
2022/12/11 01:08:00;;;;;;;39.92;13.32;;;-0.40;99.90;;;;;;5075843;28;20499;-76
2022/12/11 01:10:26;;;;;;;34.28;12.70;;;-0.50;99.90;;;;;;5076072;28;20055;-78
2022/12/11 01:13:09;;;;;;;37.03;13.50;;;-0.40;99.90;;;;;;5075874;28;20044;-76
2022/12/11 01:15:40;;;;;;;32.13;13.90;;;-0.40;99.90;;;;;;5076127;28;20033;-76
2022/12/11 01:18:06;;;;;;;39.63;14.13;;;-0.40;99.90;;;;;;5076101;28;20135;-77
2022/12/11 01:20:32;;;;;;;33.30;13.70;;;-0.40;99.90;;;;;;5076171;28;20123;-77
2022/12/11 01:22:59;;;;;;;31.10;12.03;;;-0.40;99.90;;;;;;5074900;28;20203;-76
2022/12/11 01:25:26;;;;;;;;;;;-0.40;99.90;;;;;;5076500;28;20087;-76
2022/12/11 01:27:53;;;;;;;36.83;13.20;;;-0.40;99.90;;;;;;5075935;28;19921;-75
2022/12/11 01:30:20;;;;;;;33.30;13.35;;;-0.40;99.90;;;;;;5075745;28;20041;-77
2022/12/11 01:32:46;;;;;;;37.25;14.30;;;-0.30;99.90;;;;;;5075842;28;20070;-78
2022/12/11 01:35:12;;;;;;;31.33;12.77;;;-0.40;99.90;;;;;;5075379;28;20044;-78
2022/12/11 01:37:38;;;;;;;33.70;13.50;;;-0.30;99.90;;;;;;5075563;28;20045;-76
2022/12/11 01:40:06;;;;;;;35.63;14.07;;;-0.30;99.90;;;;;;5075040;28;20135;-75
2022/12/11 01:42:33;;;;;;;34.05;13.15;;;-0.30;99.90;;;;;;5075374;28;20052;-78
2022/12/11 01:45:20;;;;;;;35.42;14.43;;;-0.20;99.90;;;;;;5075321;28;20045;-79
2022/12/11 01:47:46;;;;;;;35.13;13.23;;;-0.30;99.90;;;;;;5075347;28;20139;-77
2022/12/11 01:50:12;;;;;;;31.92;13.43;;;-0.30;99.90;;;;;;5075292;28;20040;-76
2022/12/11 01:52:40;;;;;;;30.55;12.60;;;-0.20;99.90;;;;;;5075267;28;20040;-78
2022/12/11 01:55:07;;;;;;;35.72;12.65;;;-0.20;99.90;;;;;;5075168;28;20057;-76
2022/12/11 01:57:36;;;;;;;31.45;13.95;;;-0.20;99.90;;;;;;5075256;28;20132;-76
2022/12/11 02:00:02;;;;;;;43.83;14.35;;;-0.20;99.90;;;;;;5075374;28;20055;-77
2022/12/11 02:02:30;;;;;;;29.70;13.50;;;-0.20;99.90;;;;;;5075057;28;20127;-77
2022/12/11 02:04:56;;;;;;;37.65;14.20;;;-0.20;99.90;;;;;;5075018;28;20049;-76
2022/12/11 02:07:22;;;;;;;33.22;13.88;;;-0.30;99.90;;;;;;5075046;28;20041;-75
2022/12/11 02:09:48;;;;;;;36.03;12.93;;;-0.20;99.90;;;;;;5073944;28;20487;-77
2022/12/11 02:12:20;;;;;;;34.85;13.00;;;-0.20;99.90;;;;;;5074577;28;20512;-79
2022/12/11 02:15:10;;;;;;;36.38;13.30;;;-0.30;99.90;;;;;;5074823;28;20253;-77
2022/12/11 02:17:57;;;;;;;32.92;13.95;;;-0.20;99.90;;;;;;5074948;28;20050;-77
2022/12/11 02:20:46;;;;;;;31.75;13.88;;;-0.30;99.90;;;;;;5074655;28;20091;-77
2022/12/11 02:23:11;;;;;;;37.05;13.93;;;-0.30;99.90;;;;;;5073527;28;20044;-77
2022/12/11 02:26:05;;;;;;;32.97;13.52;;;-0.30;99.90;;;;;;5074356;28;20154;-77
2022/12/11 02:28:36;;;;;;;38.33;14.20;;;-0.30;99.90;;;;;;5074225;28;20052;-78
2022/12/11 02:31:13;;;;;;;31.35;12.82;;;-0.20;99.90;;;;;;5074331;28;20048;-76
2022/12/11 02:33:58;;;;;;;35.10;14.00;;;-0.20;99.90;;;;;;5074852;28;20043;-76
2022/12/11 02:36:28;;;;;;;32.28;13.27;;;-0.20;99.90;;;;;;5074390;28;20493;-75
2022/12/11 02:38:55;;;;;;;30.73;13.60;;;-0.20;99.90;;;;;;5074104;28;20124;-76
2022/12/11 02:41:22;;;;;;;31.55;12.88;;;-0.10;99.90;;;;;;5074395;28;20457;-76
2022/12/11 02:43:49;;;;;;;30.45;13.45;;;-0.20;99.90;;;;;;5074395;28;20494;-76
2022/12/11 02:46:18;;;;;;;32.47;13.68;;;-0.20;99.90;;;;;;5074358;28;20049;-77
2022/12/11 02:48:46;;;;;;;34.97;13.82;;;-0.20;99.90;;;;;;5074273;28;20044;-79
2022/12/11 02:51:15;;;;;;;34.83;13.57;;;-0.10;99.90;;;;;;5073473;28;20041;-77
2022/12/11 02:53:43;;;;;;;38.20;13.90;;;-0.10;99.90;;;;;;5073899;28;20048;-76
2022/12/11 02:56:31;;;;;;;39.92;15.63;;;-0.10;99.90;;;;;;5074162;28;20045;-76
2022/12/11 02:59:03;;;;;;;33.75;14.98;;;-0.10;99.90;;;;;;5074249;28;20049;-77
2022/12/11 03:01:29;;;;;;;38.03;13.73;;;0.00;99.90;;;;;;5073711;28;20098;-76
2022/12/11 03:03:56;;;;;;;34.10;13.70;;;0.00;99.90;;;;;;5073875;28;20056;-74
2022/12/11 03:06:28;;;;;;;35.17;13.60;;;0.00;99.90;;;;;;5073636;28;20040;-75
2022/12/11 03:08:53;;;;;;;31.38;12.70;;;0.00;99.90;;;;;;5073861;28;20043;-77
2022/12/11 03:11:19;;;;;;;33.58;14.02;;;0.00;99.90;;;;;;5073807;28;20460;-76
2022/12/11 03:13:45;;;;;;;32.83;13.30;;;0.00;99.90;;;;;;5074826;28;20044;-75
2022/12/11 03:16:25;;;;;;;32.15;13.13;;;0.00;99.90;;;;;;5073852;28;20040;-76
2022/12/11 03:18:59;;;;;;;33.58;14.02;;;0.00;99.90;;;;;;5074116;28;20040;-76
2022/12/11 03:21:31;;;;;;;34.20;14.43;;;0.00;99.90;;;;;;5074545;28;20044;-76
2022/12/11 03:24:10;;;;;;;33.75;13.40;;;0.00;99.90;;;;;;5086842;28;20091;-77
2022/12/11 03:26:41;;;;;;;33.03;13.60;;;0.00;99.90;;;;;;5094365;28;20135;-76
2022/12/11 03:29:20;;;;;;;33.83;13.90;;;0.00;99.90;;;;;;5093913;28;20044;-77
2022/12/11 03:32:12;;;;;;;43.45;14.13;;;0.00;99.90;;;;;;5093799;28;20051;-78
2022/12/11 03:34:43;;;;;;;37.95;13.73;;;0.00;99.90;;;;;;5093128;28;20488;-77
2022/12/11 03:37:12;;;;;;;42.03;14.18;;;0.00;99.90;;;;;;5093549;28;20044;-76
2022/12/11 03:39:42;;;;;;;33.90;13.10;;;0.00;99.90;;;;;;5093776;28;20419;-75
2022/12/11 03:42:12;;;;;;;36.60;13.68;;;0.00;99.90;;;;;;5093064;28;20392;-77
2022/12/11 03:44:39;;;;;;;38.35;13.80;;;0.00;99.90;;;;;;5093997;28;20498;-76
2022/12/11 03:47:08;;;;;;;43.60;13.88;;;0.10;99.90;;;;;;5093683;28;20086;-76
2022/12/11 03:49:38;;;;;;;39.17;14.95;;;0.10;99.90;;;;;;5093862;28;20407;-76
2022/12/11 03:52:05;;;;;;;39.58;15.15;;;1.10;99.90;;;;;;5094012;28;20047;-76
2022/12/11 03:54:32;;;;;;;38.55;14.38;;;0.00;99.90;;;;;;5093565;28;20044;-76
2022/12/11 03:57:01;;;;;;;38.80;15.35;;;0.00;99.90;;;;;;5093646;28;20137;-78
2022/12/11 03:59:27;;;;;;;39.47;15.35;;;0.00;99.90;;;;;;5093535;28;20051;-75
2022/12/11 04:01:53;;;;;;;40.85;14.63;;;0.00;99.90;;;;;;5093518;28;20048;-77
2022/12/11 04:04:19;;;;;;;43.67;15.70;;;0.10;99.90;;;;;;5097662;28;20044;-76
2022/12/11 04:06:44;;;;;;;40.38;14.93;;;0.40;99.90;;;;;;5097533;28;20036;-77
2022/12/11 04:09:10;;;;;;;46.03;15.85;;;0.00;99.90;;;;;;5097244;28;20086;-76
2022/12/11 04:11:36;;;;;;;45.00;15.98;;;0.00;99.90;;;;;;5097523;28;20055;-77
2022/12/11 04:16:48;;;;;;;42.45;15.55;;;0.10;99.90;;;;;;5097395;28;20048;-77
2022/12/11 04:24:39;;;;;;;50.40;18.35;;;0.10;99.90;;;;;;5096563;28;20047;-75
2022/12/11 04:27:05;;;;;;;54.33;16.23;;;0.50;99.90;;;;;;5096952;28;20065;-75
2022/12/11 04:29:31;;;;;;;51.10;16.80;;;0.10;99.90;;;;;;5097227;28;20123;-78
2022/12/11 04:31:57;;;;;;;45.22;16.13;;;0.10;99.90;;;;;;5097014;28;20491;-78
2022/12/11 04:34:23;;;;;;;49.58;17.02;;;0.10;99.90;;;;;;5097885;28;20080;-77
2022/12/11 04:36:49;;;;;;;45.42;17.23;;;0.00;99.90;;;;;;5096995;28;20464;-76
2022/12/11 04:39:15;;;;;;;43.25;16.42;;;0.00;99.90;;;;;;5097063;28;20040;-75
2022/12/11 04:41:41;;;;;;;42.83;14.68;;;0.00;99.90;;;;;;5096942;28;20428;-76
2022/12/11 04:44:07;;;;;;;46.95;16.15;;;0.50;99.90;;;;;;5097013;28;20105;-76
2022/12/11 04:46:33;;;;;;;45.50;16.43;;;0.00;99.90;;;;;;5095439;28;20062;-76
2022/12/11 04:48:59;;;;;;;43.63;15.80;;;0.00;99.90;;;;;;5096758;28;20047;-76
2022/12/11 04:51:26;;;;;;;49.07;16.03;;;0.00;99.90;;;;;;5096761;28;20048;-78
2022/12/11 04:53:51;;;;;;;51.72;17.40;;;0.50;99.90;;;;;;5096575;28;20051;-76
2022/12/11 04:56:17;;;;;;;60.97;16.75;;;0.10;99.90;;;;;;5096594;28;20044;-74
2022/12/11 04:58:44;;;;;;;43.17;16.35;;;0.10;99.90;;;;;;5096668;28;20047;-76
2022/12/11 05:01:12;;;;;;;47.88;16.73;;;0.00;99.90;;;;;;5096518;28;20040;-76
2022/12/11 05:03:38;;;;;;;43.95;16.27;;;0.00;99.90;;;;;;5096459;28;20092;-77
2022/12/11 05:06:04;;;;;;;40.43;14.50;;;0.00;99.90;;;;;;5096655;28;20044;-75
2022/12/11 05:08:29;;;;;;;43.10;16.08;;;0.00;99.90;;;;;;5096420;28;20085;-76
2022/12/11 05:11:00;;;;;;;45.40;16.38;;;0.10;99.90;;;;;;5096669;28;20387;-76
2022/12/11 05:13:28;;;;;;;36.20;13.95;;;0.00;99.90;;;;;;5096134;28;20044;-76
2022/12/11 05:15:54;;;;;;;35.10;15.13;;;0.00;99.90;;;;;;5095484;28;20051;-75
2022/12/11 05:18:19;;;;;;;42.95;15.20;;;0.10;99.90;;;;;;5096191;28;20454;-75
2022/12/11 05:20:54;;;;;;;32.58;14.25;;;0.00;99.90;;;;;;5096294;28;20122;-76
2022/12/11 05:23:20;;;;;;;46.42;15.75;;;0.10;99.90;;;;;;5096175;28;20059;-76
2022/12/11 05:25:54;;;;;;;44.95;15.65;;;0.10;99.90;;;;;;5095865;28;20048;-75
2022/12/11 05:28:21;;;;;;;41.25;15.50;;;0.10;99.90;;;;;;5095921;28;20101;-74
2022/12/11 05:30:47;;;;;;;42.35;15.77;;;0.10;99.90;;;;;;5096369;28;20121;-76
2022/12/11 05:33:12;;;;;;;37.33;14.82;;;0.10;99.90;;;;;;5096317;28;20476;-76
2022/12/11 05:35:38;;;;;;;39.17;15.25;;;0.10;99.90;;;;;;5095889;28;20483;-75
2022/12/11 05:38:04;;;;;;;44.75;16.02;;;0.10;99.90;;;;;;5095809;28;20090;-76
2022/12/11 05:40:29;;;;;;;35.20;14.68;;;0.10;99.90;;;;;;5094593;28;20345;-75
2022/12/11 05:42:55;;;;;;;35.90;13.90;;;0.10;99.90;;;;;;5095782;28;20492;-75
2022/12/11 05:45:20;;;;;;;45.80;15.55;;;0.10;99.90;;;;;;5095756;28;20043;-76
2022/12/11 05:47:46;;;;;;;39.45;14.73;;;0.20;99.90;;;;;;5095735;28;20044;-75
2022/12/11 05:50:11;;;;;;;43.75;14.60;;;0.10;99.90;;;;;;5096129;28;20044;-74
2022/12/11 05:52:37;;;;;;;36.85;15.23;;;0.20;99.90;;;;;;5095779;28;20044;-76
2022/12/11 05:55:03;;;;;;;45.83;15.40;;;0.10;99.90;;;;;;5095743;28;20040;-79
2022/12/11 05:57:28;;;;;;;47.00;15.57;;;0.20;99.90;;;;;;5095713;28;20039;-76
2022/12/11 05:59:54;;;;;;;43.88;16.45;;;0.10;99.90;;;;;;5095458;28;20047;-77
2022/12/11 06:02:20;;;;;;;41.75;16.73;;;0.40;99.90;;;;;;5094222;28;20047;-79
2022/12/11 06:04:45;;;;;;;43.08;16.40;;;0.10;99.90;;;;;;5095145;28;20044;-76
2022/12/11 06:07:11;;;;;;;46.53;14.68;;;0.40;99.90;;;;;;5095267;28;20036;-76
2022/12/11 06:09:36;;;;;;;41.40;15.75;;;0.10;99.90;;;;;;5095195;28;20044;-76
2022/12/11 06:12:02;;;;;;;40.15;16.58;;;0.10;99.90;;;;;;5095200;28;20040;-78
2022/12/11 06:14:28;;;;;;;43.28;16.67;;;0.10;99.90;;;;;;5094739;28;20438;-76
2022/12/11 06:16:53;;;;;;;33.38;14.63;;;0.10;99.90;;;;;;5095174;28;20051;-77
2022/12/11 06:19:19;;;;;;;45.95;15.50;;;0.10;99.90;;;;;;5094971;28;20492;-76
2022/12/11 06:21:47;;;;;;;40.65;15.77;;;0.10;99.90;;;;;;5095123;28;20061;-79
2022/12/11 06:24:13;;;;;;;39.60;15.90;;;0.10;99.90;;;;;;5094915;28;20389;-75
2022/12/11 06:26:38;;;;;;;45.60;16.23;;;0.10;99.90;;;;;;5094600;28;20052;-76
2022/12/11 06:29:04;;;;;;;51.38;17.90;;;0.10;99.90;;;;;;5094819;28;20105;-77
2022/12/11 06:31:30;;;;;;;55.47;17.15;;;0.10;99.90;;;;;;5095483;28;20384;-79
2022/12/11 06:33:55;;;;;;;42.80;16.25;;;0.10;99.90;;;;;;5094725;28;20051;-77
2022/12/11 06:36:22;;;;;;;37.38;15.93;;;0.10;99.90;;;;;;5094633;28;20097;-77
2022/12/11 06:38:48;;;;;;;42.90;15.10;;;0.10;99.90;;;;;;5094450;28;20070;-75
2022/12/11 06:41:14;;;;;;;42.20;14.82;;;0.10;99.90;;;;;;5094627;28;20457;-75
2022/12/11 06:43:41;;;;;;;46.92;16.67;;;0.10;99.90;;;;;;5094589;28;20123;-77
2022/12/11 06:46:10;;;;;;;41.60;16.27;;;0.10;99.90;;;;;;5094358;28;20524;-77
2022/12/11 06:48:36;;;;;;;46.97;17.08;;;0.10;99.90;;;;;;5094522;28;20044;-78
2022/12/11 06:51:07;;;;;;;52.42;16.35;;;0.10;99.90;;;;;;5094422;28;20051;-76
2022/12/11 06:53:32;;;;;;;42.63;16.30;;;0.10;99.90;;;;;;5094403;28;20119;-76
2022/12/11 06:56:04;;;;;;;39.25;14.80;;;0.10;99.90;;;;;;5094123;28;20099;-76
2022/12/11 06:58:30;;;;;;;40.13;15.68;;;0.10;99.90;;;;;;5094069;28;20040;-76
2022/12/11 07:00:55;;;;;;;42.80;14.10;;;0.10;99.90;;;;;;5094337;28;20567;-77
2022/12/11 07:03:21;;;;;;;34.75;13.52;;;0.10;99.90;;;;;;5094234;28;20040;-78
2022/12/11 07:05:46;;;;;;;43.67;14.00;;;0.10;99.90;;;;;;5093628;28;20040;-82
2022/12/11 07:08:12;;;;;;;38.20;14.65;;;0.10;99.90;;;;;;5094137;28;20040;-78
2022/12/11 07:10:38;;;;;;;38.05;14.45;;;0.10;99.90;;;;;;5094114;28;20118;-77
2022/12/11 07:13:03;;;;;;;38.05;14.65;;;0.10;99.90;;;;;;5093987;28;20051;-77
2022/12/11 07:15:29;;;;;;;39.83;15.50;;;1.30;99.90;;;;;;5093083;28;20047;-81
2022/12/11 07:17:54;;;;;;;36.05;14.45;;;0.10;99.90;;;;;;5093962;28;20365;-76
2022/12/11 07:20:20;;;;;;;34.55;13.90;;;0.20;99.90;;;;;;5092801;28;20047;-77
2022/12/11 07:22:46;;;;;;;34.17;14.38;;;0.20;99.90;;;;;;5093929;28;20051;-77
2022/12/11 07:25:11;;;;;;;35.20;14.85;;;0.20;99.90;;;;;;5093999;28;20054;-75
2022/12/11 07:27:37;;;;;;;40.83;14.02;;;0.20;99.90;;;;;;5093391;28;20060;-76
2022/12/11 07:30:03;;;;;;;40.05;14.95;;;0.10;99.90;;;;;;5093780;28;20127;-79
2022/12/11 07:32:29;;;;;;;41.53;15.37;;;0.10;99.90;;;;;;5093775;28;20039;-78
2022/12/11 07:34:54;;;;;;;42.83;15.23;;;1.00;99.90;;;;;;5093612;28;20278;-77
2022/12/11 07:37:20;;;;;;;39.80;13.35;;;0.10;99.90;;;;;;5093231;28;20044;-76
2022/12/11 07:39:47;;;;;;;40.03;14.98;;;0.20;99.90;;;;;;5093740;28;20052;-77
2022/12/11 07:42:13;;;;;;;42.30;15.27;;;0.10;99.90;;;;;;5093642;28;20056;-77
2022/12/11 07:44:38;;;;;;;40.47;15.38;;;0.10;99.90;;;;;;5093968;28;20047;-77
2022/12/11 07:47:04;;;;;;;40.03;15.63;;;0.60;99.90;;;;;;5093604;28;20480;-78
2022/12/11 07:49:30;;;;;;;42.97;16.35;;;0.10;99.90;;;;;;5093955;28;20047;-77
2022/12/11 07:51:55;;;;;;;47.88;15.25;;;0.10;99.90;;;;;;5093749;28;20403;-76
2022/12/11 07:54:21;;;;;;;37.65;15.20;;;0.10;99.90;;;;;;5093587;28;20059;-79
2022/12/11 07:56:47;;;;;;;38.65;14.93;;;1.20;99.90;;;;;;5093516;28;20050;-77
2022/12/11 07:59:13;;;;;;;45.40;15.85;;;0.80;99.90;;;;;;5093973;28;20040;-77
2022/12/11 08:01:39;;;;;;;48.75;17.00;;;0.10;99.90;;;;;;5093178;28;20052;-74
2022/12/11 08:04:07;;;;;;;43.20;14.55;;;0.10;99.90;;;;;;5093610;28;20436;-77
2022/12/11 08:06:36;;;;;;;35.35;15.20;;;0.10;99.90;;;;;;5093301;28;20036;-74
2022/12/11 08:09:04;;;;;;;44.65;15.38;;;0.10;99.90;;;;;;5093401;28;20134;-78
2022/12/11 08:11:30;;;;;;;42.42;16.33;;;0.10;99.90;;;;;;5093015;28;20472;-76
2022/12/11 08:13:58;;;;;;;38.40;15.95;;;0.10;99.90;;;;;;5093318;28;20620;-78
2022/12/11 08:16:24;;;;;;;36.15;15.60;;;0.10;99.90;;;;;;5093336;28;20044;-78
2022/12/11 08:18:50;;;;;;;40.90;15.85;;;0.10;99.90;;;;;;5093272;28;20376;-76
2022/12/11 08:21:24;;;;;;;43.08;15.70;;;0.10;99.90;;;;;;5093583;28;20040;-76
2022/12/11 08:23:51;;;;;;;43.20;16.52;;;0.10;99.90;;;;;;5093251;28;20488;-78
2022/12/11 08:26:20;;;;;;;37.60;15.32;;;0.10;99.90;;;;;;5093046;28;20138;-75
2022/12/11 08:28:46;;;;;;;40.50;16.67;;;0.10;99.90;;;;;;5093690;28;20121;-73
2022/12/11 08:31:13;;;;;;;44.70;14.70;;;0.20;99.90;;;;;;5093167;28;20472;-76
2022/12/11 08:33:40;;;;;;;39.53;16.02;;;0.20;99.90;;;;;;5093142;28;20044;-76
2022/12/11 08:36:08;;;;;;;40.67;14.75;;;0.20;99.90;;;;;;5092117;28;20052;-75
2022/12/11 08:38:35;;;;;;;49.90;15.13;;;0.20;99.90;;;;;;5091230;28;20047;-77
2022/12/11 08:41:15;;;;;;;38.92;15.77;;;0.20;99.90;;;;;;5091392;28;20050;-75
2022/12/11 08:43:41;;;;;;;46.00;15.85;;;0.20;99.90;;;;;;5093391;28;20048;-78
2022/12/11 08:46:07;;;;;;;43.15;15.43;;;0.10;99.90;;;;;;5092955;28;20044;-75
2022/12/11 08:48:34;;;;;;;39.30;14.40;;;0.20;99.90;;;;;;5093192;28;20052;-75
2022/12/11 08:51:01;;;;;;;37.97;16.05;;;0.20;99.90;;;;;;5096457;28;20097;-78
2022/12/11 08:53:31;;;;;;;44.95;16.10;;;0.20;99.90;;;;;;5096703;28;20040;-77
2022/12/11 08:56:01;;;;;;;40.70;15.57;;;0.20;99.90;;;;;;5096882;28;20097;-75
2022/12/11 08:58:28;;;;;;;45.45;15.43;;;0.20;99.90;;;;;;5096724;28;20048;-76
2022/12/11 09:00:53;;;;;;;39.28;16.13;;;1.00;99.90;;;;;;5096763;28;20126;-76
2022/12/11 09:03:19;;;;;;;45.63;15.70;;;0.30;99.90;;;;;;5096473;28;20444;-77
2022/12/11 09:05:44;;;;;;;42.03;15.25;;;0.20;99.90;;;;;;5096388;28;20115;-75
2022/12/11 09:08:10;;;;;;;50.80;16.30;;;0.30;99.90;;;;;;5096938;28;20052;-75
2022/12/11 09:10:36;;;;;;;45.10;15.90;;;0.30;99.90;;;;;;5096822;28;20548;-77
2022/12/11 09:13:01;;;;;;;37.58;15.38;;;1.00;99.90;;;;;;5096335;28;20036;-77
2022/12/11 09:15:27;;;;;;;42.97;16.08;;;0.30;99.90;;;;;;5096260;28;20527;-76
2022/12/11 09:17:52;;;;;;;39.78;15.75;;;0.30;99.90;;;;;;5096402;28;20081;-77
2022/12/11 09:20:18;;;;;;;44.05;15.80;;;0.40;99.90;;;;;;5096219;28;20063;-76
2022/12/11 09:22:44;;;;;;;44.78;16.67;;;0.30;99.90;;;;;;5095996;28;20054;-74
2022/12/11 09:25:09;;;;;;;39.10;15.10;;;0.30;99.90;;;;;;5096017;28;20442;-75
2022/12/11 09:27:35;;;;;;;45.33;16.65;;;0.30;99.90;;;;;;5096184;28;20071;-75
2022/12/11 09:30:00;;;;;;;38.63;14.98;;;0.30;99.90;;;;;;5095803;28;20588;-76
2022/12/11 09:32:26;;;;;;;39.50;15.80;;;0.30;99.90;;;;;;5095875;28;20044;-76
2022/12/11 09:34:52;;;;;;;40.65;16.08;;;0.30;99.90;;;;;;5095981;28;20063;-77
2022/12/11 09:37:17;;;;;;;40.60;14.75;;;0.30;99.90;;;;;;5095842;28;20047;-77
2022/12/11 09:39:43;;;;;;;40.10;14.93;;;0.30;99.90;;;;;;5096297;28;20531;-75
2022/12/11 09:42:23;;;;;;;43.47;16.30;;;0.40;99.90;;;;;;5095751;28;20055;-76
2022/12/11 09:44:56;;;;;;;38.03;15.30;;;0.40;99.90;;;;;;5094673;28;20415;-76
2022/12/11 09:47:34;;;;;;;44.03;16.33;;;0.30;99.90;;;;;;5095900;28;20043;-75
2022/12/11 09:50:08;;;;;;;37.03;15.23;;;0.30;99.90;;;;;;5096383;28;20484;-76
2022/12/11 09:52:41;;;;;;;37.30;15.38;;;0.30;99.90;;;;;;5095906;28;20048;-75
2022/12/11 09:55:19;;;;;;;42.78;16.35;;;0.30;99.90;;;;;;5095977;28;20514;-76
2022/12/11 09:57:54;;;;;;;44.22;15.68;;;0.30;99.90;;;;;;5095709;28;20047;-75
2022/12/11 10:00:35;;;;;;;38.42;15.35;;;0.30;99.90;;;;;;5095164;28;20561;-75
2022/12/11 10:03:11;;;;;;;42.95;17.17;;;0.40;99.90;;;;;;5095356;28;20127;-74
2022/12/11 10:05:51;;;;;;;50.65;16.30;;;0.40;99.90;;;;;;5095439;28;20047;-76
2022/12/11 10:08:46;;;;;;;42.95;15.75;;;0.40;99.90;;;;;;5095290;28;20130;-76
2022/12/11 10:11:36;;;;;;;38.42;15.50;;;0.40;99.90;;;;;;5095287;28;20044;-76
2022/12/11 10:14:07;;;;;;;41.78;16.17;;;0.40;99.90;;;;;;5095422;28;20044;-74
2022/12/11 10:16:42;;;;;;;41.42;15.02;;;0.50;99.90;;;;;;5095290;28;20093;-76
2022/12/11 10:19:29;;;;;;;49.20;17.30;;;0.40;99.90;;;;;;5094984;28;20120;-74
2022/12/11 10:21:56;;;;;;;42.03;16.50;;;0.40;99.90;;;;;;5093811;28;20079;-76
2022/12/11 10:24:21;;;;;;;46.50;17.73;;;0.50;99.90;;;;;;5094981;28;20076;-74
2022/12/11 10:26:47;;;;;;;43.10;15.70;;;0.50;99.90;;;;;;5094614;28;20087;-76
2022/12/11 10:29:14;;;;;;;42.05;15.73;;;0.40;99.90;;;;;;5094861;28;20504;-74
2022/12/11 10:31:44;;;;;;;41.33;17.38;;;0.50;99.90;;;;;;5094741;28;20080;-75
2022/12/11 10:34:36;;;;;;;43.70;18.48;;;0.50;99.90;;;;;;5095413;28;20093;-76
2022/12/11 10:37:02;;;;;;;37.42;16.17;;;0.50;99.90;;;;;;5094026;28;20506;-81
2022/12/11 10:39:28;;;;;;;40.80;15.30;;;0.50;99.90;;;;;;5094653;28;20073;-83
2022/12/11 10:41:55;;;;;;;40.25;15.63;;;0.50;99.90;;;;;;5094733;28;20094;-73
2022/12/11 10:44:24;;;;;;;44.58;15.98;;;0.50;99.90;;;;;;5094625;28;20073;-75
2022/12/11 10:47:05;;;;;;;36.03;14.95;;;0.50;99.90;;;;;;5094309;28;20048;-75
2022/12/11 10:49:33;;;;;;;37.08;14.35;;;0.60;99.90;;;;;;5093284;28;20040;-75
2022/12/11 10:52:00;;;;;;;37.28;15.38;;;0.60;99.90;;;;;;5094630;28;20066;-75
2022/12/11 10:54:31;;;;;;;;;;;0.60;99.90;;;;;;5094801;28;20048;-75
2022/12/11 10:56:57;;;;;;;38.25;15.57;;;0.60;99.90;;;;;;5093532;28;20318;-76
2022/12/11 10:59:42;;;;;;;33.47;14.50;;;0.50;99.90;;;;;;5094356;28;20044;-75
2022/12/11 11:02:22;;;;;;;41.05;15.32;;;1.70;99.90;;;;;;5093000;28;20052;-74
2022/12/11 11:04:48;;;;;;;34.17;15.38;;;1.00;99.90;;;;;;5094167;28;20079;-76
2022/12/11 11:07:23;;;;;;;39.90;14.82;;;0.60;99.90;;;;;;5094127;28;20051;-76
2022/12/11 11:09:50;;;;;;;43.00;15.98;;;0.50;99.90;;;;;;5094725;28;20055;-75
2022/12/11 11:12:26;;;;;;;;;;;0.50;99.90;;;;;;5093800;28;20052;-74
2022/12/11 11:15:03;;;;;;;39.25;15.55;;;0.60;99.90;;;;;;5094165;28;20065;-74
2022/12/11 11:17:31;;;;;;;34.30;14.85;;;0.60;99.90;;;;;;5093826;28;20407;-74
2022/12/11 11:20:03;;;;;;;38.67;14.02;;;0.60;99.90;;;;;;5094000;28;20144;-76
2022/12/11 11:22:30;;;;;;;42.88;16.17;;;0.60;99.90;;;;;;5094382;28;20507;-77
2022/12/11 11:24:58;;;;;;;36.35;15.15;;;0.60;99.90;;;;;;5093774;28;20079;-76
2022/12/11 11:27:23;;;;;;;;;;;0.60;99.90;;;;;;5094384;28;20547;-74
2022/12/11 11:29:58;;;;;;;42.55;16.92;;;0.60;99.90;;;;;;5093932;28;19962;-77
2022/12/11 11:32:33;;;;;;;36.72;14.43;;;0.60;99.90;;;;;;5092658;28;20055;-75
2022/12/11 11:35:10;;;;;;;37.83;15.40;;;0.60;99.90;;;;;;5094304;28;20040;-75
2022/12/11 11:37:37;;;;;;;;;;;0.60;99.90;;;;;;5094547;28;20050;-74
2022/12/11 11:40:20;;;;;;;41.22;16.33;;;0.60;99.90;;;;;;5093744;28;20007;-76
2022/12/11 11:43:05;;;;;;;38.60;15.77;;;0.60;99.90;;;;;;5093606;28;20078;-74
2022/12/11 11:45:42;;;;;;;45.65;16.95;;;0.70;99.90;;;;;;5093959;28;20040;-74
2022/12/11 11:48:29;;;;;;;37.95;16.02;;;0.70;99.90;;;;;;5093984;28;20494;-74
2022/12/11 11:50:56;;;;;;;41.90;16.42;;;0.70;99.90;;;;;;5093688;28;20105;-75
2022/12/11 11:53:31;;;;;;;39.88;16.10;;;0.70;99.90;;;;;;5093686;28;20097;-74
2022/12/11 11:56:15;;;;;;;38.53;16.42;;;0.80;99.90;;;;;;5093636;28;20036;-73
2022/12/11 11:58:47;;;;;;;33.45;15.18;;;0.70;99.90;;;;;;5093780;28;20047;-74
2022/12/11 12:01:18;;;;;;;36.05;14.52;;;0.70;99.90;;;;;;5093568;28;20044;-73
2022/12/11 12:03:47;;;;;;;40.03;15.63;;;0.60;99.90;;;;;;5093445;28;20178;-73
2022/12/11 12:06:28;;;;;;;37.53;14.30;;;0.80;99.90;;;;;;5093452;28;20112;-74
2022/12/11 12:09:03;;;;;;;31.75;14.90;;;0.60;99.90;;;;;;5093448;28;20551;-75
2022/12/11 12:11:33;;;;;;;36.25;14.82;;;0.60;99.90;;;;;;5093543;28;20047;-76
2022/12/11 12:14:13;;;;;;;39.67;14.98;;;0.60;99.90;;;;;;5093394;28;20434;-74
2022/12/11 12:16:42;;;;;;;38.58;15.93;;;0.60;99.90;;;;;;5093401;28;20048;-74
2022/12/11 12:19:27;;;;;;;38.63;15.40;;;0.60;99.90;;;;;;5093380;28;20048;-76
2022/12/11 12:21:53;;;;;;;37.97;15.80;;;0.60;99.90;;;;;;5092842;28;20043;-74
2022/12/11 12:24:34;;;;;;;38.08;15.75;;;0.60;99.90;;;;;;5095582;28;20514;-78
2022/12/11 12:27:25;;;;;;;44.97;15.93;;;0.60;99.90;;;;;;5097110;28;20056;-77
2022/12/11 12:29:50;;;;;;;37.90;16.67;;;0.60;99.90;;;;;;5097201;28;20164;-77
2022/12/11 12:32:24;;;;;;;37.20;16.65;;;0.60;99.90;;;;;;5102312;28;20135;-72
2022/12/11 12:35:13;;;;;;;40.47;16.92;;;0.60;99.90;;;;;;5097622;28;20044;-74
2022/12/11 12:37:51;;;;;;;40.85;16.95;;;0.70;99.90;;;;;;5097563;28;20048;-74
2022/12/11 12:40:29;;;;;;;45.85;18.10;;;0.60;99.90;;;;;;5097054;28;20044;-74
2022/12/11 12:43:09;;;;;;;36.30;15.98;;;0.60;99.90;;;;;;5097204;28;20054;-73
2022/12/11 12:46:18;;;;;;;40.15;17.00;;;0.70;99.90;;;;;;5097374;28;20067;-77
2022/12/11 12:48:44;;;;;;;45.60;17.13;;;0.70;99.90;;;;;;5097063;28;20036;-76
2022/12/11 12:51:14;;;;;;;45.05;16.55;;;0.70;99.90;;;;;;5095363;28;20514;-75
2022/12/11 12:53:43;;;;;;;41.03;16.45;;;0.60;99.90;;;;;;5095572;28;20043;-74
2022/12/11 12:56:10;;;;;;;44.67;16.25;;;0.70;99.90;;;;;;5096397;28;20090;-75